createdAt,value
2023-05-17T00:02:31.875Z,12.07
2023-05-17T00:07:34.956Z,10.70
2023-05-17T00:12:38.176Z,14.50
2023-05-17T00:17:41.311Z,10.77
2023-05-17T00:22:46.023Z,11.13
2023-05-17T00:27:49.147Z,12.48
2023-05-17T00:32:52.398Z,10.23
2023-05-17T00:37:55.618Z,10.15
2023-05-17T00:42:58.349Z,14.17
2023-05-17T00:48:02.252Z,10.38
2023-05-17T00:53:05.180Z,12.10
2023-05-17T00:58:08.245Z,11.45
2023-05-17T01:03:11.566Z,10.95
2023-05-17T01:08:14.787Z,11.10
2023-05-17T01:13:55.665Z,13.55
2023-05-17T01:19:21.122Z,11.55
2023-05-17T01:24:34.678Z,9.95
2023-05-17T01:29:40.556Z,9.68
2023-05-17T01:34:43.694Z,9.20
2023-05-17T01:39:46.921Z,10.50
2023-05-17T01:45:01.716Z,9.82
2023-05-17T01:50:07.211Z,11.75
2023-05-17T01:55:13.377Z,10.27
2023-05-17T02:00:17.262Z,9.40
2023-05-17T02:05:22.475Z,7.03
2023-05-17T02:10:25.583Z,6.95
2023-05-17T02:15:28.725Z,9.20
2023-05-17T02:20:32.038Z,9.38
2023-05-17T02:25:35.152Z,9.07
2023-05-17T02:30:41.719Z,7.30
2023-05-17T02:35:45.007Z,6.82
2023-05-17T02:40:47.769Z,8.57
2023-05-17T02:45:51.099Z,7.03
2023-05-17T02:50:54.222Z,5.47
2023-05-17T02:55:58.471Z,5.63
2023-05-17T03:01:01.685Z,6.32
2023-05-17T03:06:06.110Z,4.63
2023-05-17T03:11:09.331Z,5.53
2023-05-17T03:16:12.609Z,4.00
2023-05-17T03:21:15.943Z,4.45
2023-05-17T03:26:20.066Z,3.97
2023-05-17T03:31:27.074Z,5.03
2023-05-17T03:36:30.194Z,4.70
2023-05-17T03:41:34.024Z,4.83
2023-05-17T03:46:37.184Z,5.03
2023-05-17T03:51:40.975Z,5.65
2023-05-17T03:56:47.386Z,7.03
2023-05-17T04:01:50.501Z,5.18
2023-05-17T04:06:53.380Z,11.43
2023-05-17T04:11:56.699Z,9.43
2023-05-17T04:16:59.912Z,9.90
2023-05-17T04:22:03.088Z,14.52
2023-05-17T04:27:07.167Z,11.10
2023-05-17T04:32:11.784Z,11.33
2023-05-17T04:37:16.558Z,8.80
2023-05-17T04:42:20.826Z,10.07
2023-05-17T04:47:29.289Z,8.15
2023-05-17T04:52:33.237Z,7.53
2023-05-17T04:57:36.283Z,7.83
2023-05-17T05:02:41.129Z,6.50
2023-05-17T05:07:45.754Z,7.28
2023-05-17T05:12:49.440Z,7.07
2023-05-17T05:17:53.079Z,6.63
2023-05-17T05:22:58.709Z,6.43
2023-05-17T05:28:02.553Z,6.60
2023-05-17T05:33:06.881Z,5.72
2023-05-17T05:38:11.079Z,6.35
2023-05-17T05:43:15.303Z,5.40
2023-05-17T05:48:18.326Z,5.10
2023-05-17T05:53:21.296Z,5.60
2023-05-17T05:58:27.527Z,5.63
2023-05-17T06:03:30.918Z,6.40
2023-05-17T06:08:33.807Z,9.63
2023-05-17T06:13:36.787Z,8.77
2023-05-17T06:18:39.875Z,8.85
2023-05-17T06:23:43.130Z,10.50
2023-05-17T06:28:46.354Z,9.00
2023-05-17T06:33:49.392Z,8.18
2023-05-17T06:38:52.522Z,8.10
2023-05-17T06:43:55.638Z,8.45
2023-05-17T06:48:59.070Z,7.97
2023-05-17T06:54:02.457Z,8.70
2023-05-17T06:59:05.178Z,10.55
2023-05-17T07:04:08.299Z,9.77
2023-05-17T07:09:11.166Z,6.55
2023-05-17T07:14:14.097Z,10.43
2023-05-17T07:19:17.384Z,10.95
2023-05-17T07:24:22.331Z,12.35
2023-05-17T07:29:25.715Z,12.07
2023-05-17T07:34:28.951Z,10.18
2023-05-17T07:39:32.115Z,7.07
2023-05-17T07:44:34.997Z,8.55
2023-05-17T07:49:38.759Z,6.57
2023-05-17T07:54:41.868Z,7.70
2023-05-17T07:59:47.739Z,10.52
2023-05-17T08:04:51.336Z,9.75
2023-05-17T08:09:54.517Z,9.95
2023-05-17T08:14:57.704Z,6.53
2023-05-17T08:20:03.365Z,9.50
2023-05-17T08:25:06.498Z,4.80
2023-05-17T08:30:14.714Z,4.78
2023-05-17T08:35:18.194Z,4.40
2023-05-17T08:40:24.426Z,4.28
2023-05-17T08:45:29.721Z,4.87
2023-05-17T08:50:36.244Z,5.95
2023-05-17T08:55:43.140Z,6.32
2023-05-17T09:00:48.033Z,7.32
2023-05-17T09:05:54.887Z,6.53
2023-05-17T09:10:59.696Z,4.30
2023-05-17T09:16:02.521Z,6.82
2023-05-17T09:21:05.469Z,4.93
2023-05-17T09:26:08.884Z,7.78
2023-05-17T09:31:15.535Z,5.13
2023-05-17T09:36:20.875Z,5.37
2023-05-17T09:41:27.683Z,3.50
2023-05-17T09:46:39.064Z,4.40
2023-05-17T09:51:43.165Z,4.57
2023-05-17T09:56:46.864Z,8.45
2023-05-17T10:01:50.787Z,6.70
2023-05-17T10:06:55.349Z,7.80
2023-05-17T10:11:58.401Z,6.55
2023-05-17T10:17:03.647Z,6.45
2023-05-17T10:22:21.671Z,4.18
2023-05-17T10:27:26.922Z,10.63
2023-05-17T10:32:30.100Z,17.08
2023-05-17T10:37:33.987Z,7.50
2023-05-17T10:42:37.103Z,8.20
2023-05-17T10:47:43.740Z,10.77
2023-05-17T10:52:48.553Z,11.70
2023-05-17T10:58:10.414Z,11.80
2023-05-17T11:03:29.280Z,15.13
2023-05-17T11:08:32.531Z,11.65
2023-05-17T11:13:35.494Z,9.57
2023-05-17T11:18:49.437Z,10.27
2023-05-17T11:23:59.286Z,10.82
2023-05-17T11:29:03.846Z,6.82
2023-05-17T11:34:07.375Z,12.05
2023-05-17T11:39:12.330Z,10.18
2023-05-17T11:44:15.533Z,10.50
2023-05-17T11:49:33.994Z,8.52
2023-05-17T11:54:40.709Z,9.68
2023-05-17T11:59:43.821Z,9.60
2023-05-17T12:04:47.257Z,10.35
2023-05-17T12:09:50.485Z,12.27
2023-05-17T12:14:53.684Z,11.82
2023-05-17T12:19:57.010Z,14.10
2023-05-17T12:25:00.298Z,13.63
2023-05-17T12:30:15.797Z,12.95
2023-05-17T12:35:18.738Z,10.30
2023-05-17T12:40:22.252Z,8.43
2023-05-17T12:45:25.241Z,7.93
2023-05-17T12:50:31.492Z,9.43
2023-05-17T12:55:38.700Z,7.85
2023-05-17T13:00:41.668Z,8.00
2023-05-17T13:05:45.746Z,10.82
2023-05-17T13:10:48.616Z,11.52
2023-05-17T13:15:51.428Z,9.27
2023-05-17T13:20:54.246Z,9.82
2023-05-17T13:25:57.171Z,11.30
2023-05-17T13:31:00.046Z,11.18
2023-05-17T13:36:03.208Z,8.23
2023-05-17T13:41:09.378Z,11.85
2023-05-17T13:46:12.448Z,13.65
2023-05-17T13:51:15.448Z,11.27
2023-05-17T13:56:18.720Z,12.70
2023-05-17T14:01:21.582Z,19.88
2023-05-17T14:06:24.541Z,22.42
2023-05-17T14:11:27.502Z,19.73
2023-05-17T14:16:30.325Z,25.67
2023-05-17T14:21:33.251Z,21.92
2023-05-17T14:26:36.079Z,16.92
2023-05-17T14:31:38.834Z,14.27
2023-05-17T14:36:41.937Z,15.23
2023-05-17T14:41:45.151Z,16.77
2023-05-17T14:46:47.999Z,19.30
2023-05-17T14:51:50.973Z,15.23
2023-05-17T14:56:53.765Z,15.35
2023-05-17T15:01:57.123Z,13.57
2023-05-17T15:06:59.957Z,15.57
2023-05-17T15:12:02.820Z,17.23
2023-05-17T15:17:05.795Z,21.60
2023-05-17T15:22:09.117Z,15.43
2023-05-17T15:27:15.723Z,14.10
2023-05-17T15:32:18.620Z,14.93
2023-05-17T15:37:21.814Z,15.68
2023-05-17T15:42:24.559Z,15.93
2023-05-17T15:47:38.669Z,11.27
2023-05-17T15:52:47.681Z,16.70
2023-05-17T15:57:50.513Z,10.97
2023-05-17T16:02:53.593Z,12.77
2023-05-17T16:07:56.559Z,17.20
2023-05-17T16:12:59.947Z,15.02
2023-05-17T16:18:02.976Z,11.40
2023-05-17T16:23:07.125Z,13.63
2023-05-17T16:28:09.876Z,20.08
2023-05-17T16:33:14.742Z,20.25
2023-05-17T16:38:19.203Z,18.60
2023-05-17T16:43:22.442Z,21.88
2023-05-17T16:48:25.283Z,21.30
2023-05-17T16:53:28.574Z,16.02
2023-05-17T16:58:31.353Z,15.43
2023-05-17T17:03:34.361Z,17.92
2023-05-17T17:08:37.258Z,15.82
2023-05-17T17:13:39.957Z,14.90
2023-05-17T17:18:42.765Z,16.45
2023-05-17T17:23:46.367Z,14.82
2023-05-17T17:28:49.281Z,17.65
2023-05-17T17:33:52.293Z,18.08
2023-05-17T17:38:55.172Z,18.63
2023-05-17T17:43:57.981Z,15.48
2023-05-17T17:49:00.934Z,18.58
2023-05-17T17:54:05.752Z,15.93
2023-05-17T17:59:08.772Z,16.77
2023-05-17T18:04:13.796Z,21.57
2023-05-17T18:09:16.732Z,21.98
2023-05-17T18:14:19.862Z,25.10
2023-05-17T18:19:22.903Z,20.02
2023-05-17T18:24:26.263Z,23.33
2023-05-17T18:29:29.141Z,24.77
2023-05-17T18:34:32.383Z,26.95
2023-05-17T18:39:35.478Z,24.13
2023-05-17T18:44:38.641Z,25.27
2023-05-17T18:49:48.436Z,26.70
2023-05-17T18:54:51.505Z,25.70
2023-05-17T18:59:54.550Z,24.67
2023-05-17T19:04:57.790Z,24.90
2023-05-17T19:10:00.974Z,24.02
2023-05-17T19:15:04.430Z,25.38
2023-05-17T19:20:09.151Z,21.97
2023-05-17T19:25:13.380Z,21.00
2023-05-17T19:30:17.334Z,25.83
2023-05-17T19:35:20.260Z,20.75
2023-05-17T19:40:24.432Z,20.90
2023-05-17T19:45:27.529Z,21.20
2023-05-17T19:50:30.990Z,18.92
2023-05-17T19:55:34.876Z,21.02
2023-05-17T20:00:38.833Z,22.33
2023-05-17T20:05:42.489Z,23.30
2023-05-17T20:10:45.359Z,23.93
2023-05-17T20:15:48.465Z,26.35
2023-05-17T20:20:54.499Z,23.08
2023-05-17T20:25:57.369Z,23.55
2023-05-17T20:31:01.145Z,21.33
2023-05-17T20:36:04.328Z,18.87
2023-05-17T20:41:07.770Z,22.67
2023-05-17T20:46:10.898Z,24.95
2023-05-17T20:51:14.255Z,34.00
2023-05-17T20:56:19.607Z,23.58
2023-05-17T21:01:22.864Z,29.13
2023-05-17T21:06:30.229Z,32.88
2023-05-17T21:11:34.777Z,30.27
2023-05-17T21:16:37.564Z,29.58
2023-05-17T21:21:40.820Z,33.92
2023-05-17T21:26:44.024Z,33.60
2023-05-17T21:31:46.809Z,38.35
2023-05-17T21:36:49.649Z,39.15
2023-05-17T21:41:52.447Z,29.35
2023-05-17T21:46:56.947Z,33.60
2023-05-17T21:52:00.549Z,33.53
2023-05-17T21:57:03.401Z,41.92
2023-05-17T22:02:07.194Z,35.45
2023-05-17T22:07:11.569Z,39.35
2023-05-17T22:12:15.102Z,36.65
2023-05-17T22:17:17.980Z,32.80
2023-05-17T22:22:22.069Z,32.35
2023-05-17T22:27:24.893Z,35.25
2023-05-17T22:32:28.201Z,35.03
2023-05-17T22:37:33.158Z,34.97
2023-05-17T22:42:36.538Z,36.23
2023-05-17T22:47:39.628Z,37.05
2023-05-17T22:52:42.981Z,40.88
2023-05-17T22:57:46.587Z,35.40
2023-05-17T23:02:49.754Z,35.22
2023-05-17T23:07:52.594Z,36.57
2023-05-17T23:12:58.530Z,36.35
2023-05-17T23:18:01.597Z,41.17
2023-05-17T23:23:04.583Z,37.33
2023-05-17T23:28:07.459Z,35.95
2023-05-17T23:33:10.196Z,36.07
2023-05-17T23:38:13.006Z,38.33
2023-05-17T23:43:15.786Z,38.80
2023-05-17T23:48:21.008Z,32.90
2023-05-17T23:53:24.594Z,33.45
2023-05-17T23:58:27.281Z,34.80
